Terminal Aerodrome Forecast
Issued by NWS

Home | Current Version | Previous Version | Text Only | Print | Product List | Glossary On
Versions: 1 2 3 4 5 6 7 8 9 10 11 12 13 14 15 16 17 18 19
000
FTUS43 KGLD 282357 CCA
TAFMCK
TAF COR
KMCK 282357Z 2900/2924 15008KT P6SM FEW250
     FM291100 13004KT P6SM BKN150 PROB30 2918/2924 -TSRA SCT040CB=

USA.gov is the U.S. government's official web portal to all federal, state and local government web resources and services.